Terminal Aerodrome Forecast
Issued by NWS

Current Version | Previous Version | Text Only | Print | Product List | Glossary On
Versions: 1 2 3 4 5 6 7 8 9 10 11 12 13
507
FTUS42 KMLB 231740
TAFTIX
TAF
KTIX 231740Z 2318/2418 33008KT P6SM BKN060
     FM232000 03012G16KT P6SM VCSH SCT030 BKN060
     FM240000 01006KT P6SM FEW015 BKN040
      TEMPO 2409/2412 4SM BR BKN006
     FM241300 03009KT P6SM SCT008 SCT025=

USA.gov is the U.S. government's official web portal to all federal, state and local government web resources and services.